Scotts Valley, California
Current Conditions -  °F | °C
As of 3:53 PM on Saturday 25 Oct 2014 (Local Time) from KWVI Reporting Station
Few Clouds Few Clouds  
Wind Chill: 70°   Ceiling: Unl
Heat Index: 70°   Visibility: 10mi
Dew Point: 60°   Wind: 10mph
Humidity: 71%   Direction: 230°SW
Pressure: 30.09"   Gusts: NA
Location:  37.05°N, 122.01°W
Report Text: KWVI 252253Z AUTO 23009KT 10SM FEW019 21/16 A3009 RMK AO2 SLP189 T02110156
Loading
Personal Weather Stations






























Interactive Weather Map
Tropical Storm Tracking
New forecast layout! Learn more

10-Day Weather Forecast

Advertisements
Track Severe Weather on mobile